createdAt,value
2022-09-13T00:02:20.982Z,6.75
2022-09-13T00:04:47.775Z,7.78
2022-09-13T00:07:14.792Z,8.27
2022-09-13T00:09:41.939Z,7.50
2022-09-13T00:12:09.032Z,6.25
2022-09-13T00:14:35.855Z,8.30
2022-09-13T00:17:03.107Z,7.18
2022-09-13T00:19:31.076Z,4.72
2022-09-13T00:22:00.016Z,6.15
2022-09-13T00:24:27.129Z,5.55
2022-09-13T00:26:54.118Z,6.95
2022-09-13T00:29:21.763Z,6.65
2022-09-13T00:31:49.122Z,6.03
2022-09-13T00:34:17.780Z,6.40
2022-09-13T00:36:44.805Z,6.80
2022-09-13T00:39:12.163Z,6.65
2022-09-13T00:41:39.329Z,4.85
2022-09-13T00:44:48.877Z,3.95
2022-09-13T00:47:24.650Z,5.40
2022-09-13T00:49:59.863Z,7.25
2022-09-13T00:52:29.775Z,5.18
2022-09-13T00:55:06.960Z,8.55
2022-09-13T00:57:36.265Z,5.82
2022-09-13T01:00:12.834Z,7.20
2022-09-13T01:03:15.509Z,6.53
2022-09-13T01:05:58.053Z,10.25
2022-09-13T01:08:25.360Z,15.88
2022-09-13T01:10:53.985Z,12.48
2022-09-13T01:13:26.621Z,9.32
2022-09-13T01:15:53.699Z,7.00
2022-09-13T01:18:22.178Z,6.07
2022-09-13T01:21:26.735Z,9.77
2022-09-13T01:24:06.734Z,4.93
2022-09-13T01:27:12.429Z,5.88
2022-09-13T01:30:16.926Z,10.90
2022-09-13T01:33:06.073Z,5.05
2022-09-13T01:35:39.444Z,4.30
2022-09-13T01:38:25.147Z,6.43
2022-09-13T01:41:04.721Z,7.63
2022-09-13T01:44:06.929Z,9.93
2022-09-13T01:46:47.024Z,6.28
2022-09-13T01:49:26.444Z,7.15
2022-09-13T01:52:05.191Z,6.22
2022-09-13T01:54:51.686Z,8.77
2022-09-13T01:57:44.174Z,5.90
2022-09-13T02:00:17.429Z,8.30
2022-09-13T02:03:07.439Z,10.18
2022-09-13T02:05:44.570Z,11.82
2022-09-13T02:08:23.269Z,9.40
2022-09-13T02:10:59.716Z,6.20
2022-09-13T02:13:34.423Z,4.65
2022-09-13T02:16:11.507Z,5.60
2022-09-13T02:18:47.030Z,7.22
2022-09-13T02:21:28.486Z,10.77
2022-09-13T02:24:25.613Z,8.23
2022-09-13T02:26:55.847Z,6.70
2022-09-13T02:29:29.573Z,5.15
2022-09-13T02:32:04.201Z,6.38
2022-09-13T02:34:38.228Z,6.03
2022-09-13T02:37:08.040Z,8.52
2022-09-13T02:39:39.607Z,5.70
2022-09-13T02:42:12.907Z,6.63
2022-09-13T02:44:47.427Z,8.02
2022-09-13T02:47:29.566Z,6.65
2022-09-13T02:50:25.306Z,8.35
2022-09-13T02:53:12.868Z,6.88
2022-09-13T02:56:19.683Z,10.13
2022-09-13T02:58:57.891Z,7.85
2022-09-13T03:01:27.103Z,6.35
2022-09-13T03:03:55.190Z,10.07
2022-09-13T03:06:27.101Z,7.93
2022-09-13T03:08:57.861Z,7.07
2022-09-13T03:11:36.725Z,7.80
2022-09-13T03:14:15.976Z,8.00
2022-09-13T03:17:21.409Z,8.35
2022-09-13T03:20:19.713Z,4.85
2022-09-13T03:23:13.871Z,6.47
2022-09-13T03:26:09.904Z,7.18
2022-09-13T03:28:43.019Z,5.70
2022-09-13T03:31:22.050Z,6.15
2022-09-13T03:34:07.094Z,8.90
2022-09-13T03:36:39.684Z,7.97
2022-09-13T03:39:39.710Z,18.63
2022-09-13T03:42:23.419Z,12.75
2022-09-13T03:44:53.840Z,10.02
2022-09-13T03:47:23.625Z,11.60
2022-09-13T03:49:54.795Z,5.28
2022-09-13T03:52:22.062Z,5.13
2022-09-13T03:54:50.352Z,6.22
2022-09-13T03:57:22.804Z,5.30
2022-09-13T03:59:55.210Z,4.72
2022-09-13T04:02:25.491Z,5.80
2022-09-13T04:04:54.259Z,7.00
2022-09-13T04:07:25.067Z,11.95
2022-09-13T04:09:53.594Z,8.90
2022-09-13T04:12:20.702Z,9.90
2022-09-13T04:14:48.698Z,9.07
2022-09-13T04:17:16.408Z,11.68
2022-09-13T04:19:45.985Z,10.73
2022-09-13T04:22:14.109Z,6.68
2022-09-13T04:24:41.504Z,6.78
2022-09-13T04:27:08.477Z,28.95
2022-09-13T04:29:35.978Z,17.33
2022-09-13T04:32:04.947Z,11.30
2022-09-13T04:34:31.844Z,14.05
2022-09-13T04:36:58.860Z,15.27
2022-09-13T04:39:25.820Z,6.63
2022-09-13T04:41:55.141Z,13.68
2022-09-13T04:44:24.710Z,19.30
2022-09-13T04:46:52.664Z,27.23
2022-09-13T04:49:20.527Z,20.95
2022-09-13T04:51:48.085Z,31.60
2022-09-13T04:54:16.315Z,16.88
2022-09-13T04:56:47.292Z,13.05
2022-09-13T04:59:14.545Z,44.88
2022-09-13T05:01:41.660Z,28.15
2022-09-13T05:04:10.666Z,25.48
2022-09-13T05:06:38.035Z,15.93
2022-09-13T05:09:07.082Z,17.90
2022-09-13T05:11:34.244Z,11.20
2022-09-13T05:14:03.070Z,11.65
2022-09-13T05:16:32.950Z,10.32
2022-09-13T05:19:01.107Z,14.20
2022-09-13T05:21:28.685Z,15.50
2022-09-13T05:23:57.198Z,9.68
2022-09-13T05:26:26.765Z,12.50
2022-09-13T05:28:55.745Z,13.98
2022-09-13T05:31:27.180Z,13.00
2022-09-13T05:33:58.907Z,12.93
2022-09-13T05:36:29.109Z,10.27
2022-09-13T05:39:26.111Z,8.35
2022-09-13T05:41:47.153Z,8.85
2022-09-13T05:44:15.621Z,11.15
2022-09-13T05:46:49.315Z,7.65
2022-09-13T05:49:16.408Z,8.77
2022-09-13T05:51:44.773Z,8.65
2022-09-13T05:54:13.301Z,9.40
2022-09-13T05:56:40.510Z,7.90
2022-09-13T05:59:09.086Z,6.43
2022-09-13T06:01:36.088Z,9.68
2022-09-13T06:04:03.034Z,10.48
2022-09-13T06:06:30.966Z,7.72
2022-09-13T06:08:57.971Z,9.38
2022-09-13T06:11:26.794Z,10.18
2022-09-13T06:13:53.991Z,10.35
2022-09-13T06:16:22.722Z,9.60
2022-09-13T06:18:50.118Z,13.75
2022-09-13T06:21:20.462Z,18.52
2022-09-13T06:23:49.137Z,10.70
2022-09-13T06:26:17.901Z,23.27
2022-09-13T06:28:51.201Z,13.85
2022-09-13T06:31:20.338Z,9.65
2022-09-13T06:33:47.347Z,9.63
2022-09-13T06:36:18.297Z,9.80
2022-09-13T06:38:46.709Z,13.10
2022-09-13T06:41:23.054Z,11.75
2022-09-13T06:43:58.855Z,8.57
2022-09-13T06:46:29.538Z,10.32
2022-09-13T06:49:04.721Z,9.45
2022-09-13T06:51:32.918Z,9.20
2022-09-13T06:54:00.681Z,7.35
2022-09-13T06:56:29.600Z,9.38
2022-09-13T06:58:59.154Z,12.85
2022-09-13T07:01:41.834Z,9.52
2022-09-13T07:04:11.313Z,10.40
2022-09-13T07:06:40.767Z,8.90
2022-09-13T07:09:10.919Z,17.10
2022-09-13T07:11:40.365Z,16.27
2022-09-13T07:14:08.274Z,12.23
2022-09-13T07:16:37.634Z,28.85
2022-09-13T07:19:12.469Z,20.05
2022-09-13T07:21:39.321Z,14.43
2022-09-13T07:24:06.618Z,12.85
2022-09-13T07:26:35.243Z,13.63
2022-09-13T07:29:06.864Z,14.45
2022-09-13T07:31:40.151Z,23.13
2022-09-13T07:34:11.859Z,14.77
2022-09-13T07:36:38.830Z,18.85
2022-09-13T07:39:07.635Z,13.48
2022-09-13T07:41:37.402Z,11.50
2022-09-13T07:44:05.280Z,10.35
2022-09-13T07:46:33.748Z,11.15
2022-09-13T07:49:02.056Z,12.45
2022-09-13T07:51:39.863Z,17.83
2022-09-13T07:54:14.977Z,13.00
2022-09-13T07:56:44.267Z,14.48
2022-09-13T07:59:13.629Z,14.27
2022-09-13T08:01:43.183Z,12.27
2022-09-13T08:04:13.127Z,14.45
2022-09-13T08:06:41.506Z,11.18
2022-09-13T08:09:09.613Z,17.00
2022-09-13T08:11:48.707Z,11.23
2022-09-13T08:14:18.506Z,13.45
2022-09-13T08:16:46.191Z,9.95
2022-09-13T08:19:17.200Z,7.72
2022-09-13T08:21:46.586Z,14.00
2022-09-13T08:24:22.232Z,9.23
2022-09-13T08:26:49.591Z,13.93
2022-09-13T08:29:17.699Z,10.77
2022-09-13T08:31:45.420Z,8.70
2022-09-13T08:34:16.532Z,9.93
2022-09-13T08:36:44.177Z,12.45
2022-09-13T08:39:15.172Z,13.43
2022-09-13T08:41:49.059Z,9.80
2022-09-13T08:44:26.824Z,8.70
2022-09-13T08:47:16.374Z,11.68
2022-09-13T08:49:55.179Z,10.13
2022-09-13T08:52:40.803Z,9.60
2022-09-13T08:55:26.692Z,9.77
2022-09-13T08:58:05.810Z,11.55
2022-09-13T09:00:45.306Z,9.63
2022-09-13T09:03:46.948Z,18.52
2022-09-13T09:06:17.334Z,16.50
2022-09-13T09:08:50.054Z,13.02
2022-09-13T09:11:37.948Z,22.60
2022-09-13T09:14:36.139Z,12.90
2022-09-13T09:17:14.584Z,9.57
2022-09-13T09:19:50.453Z,9.73
2022-09-13T09:22:19.850Z,13.82
2022-09-13T09:24:51.608Z,10.07
2022-09-13T09:29:49.244Z,10.73
2022-09-13T09:32:47.457Z,14.73
2022-09-13T09:35:34.626Z,11.70
2022-09-13T09:38:32.498Z,8.75
2022-09-13T09:41:05.741Z,8.55
2022-09-13T09:43:39.206Z,7.13
2022-09-13T09:46:09.658Z,9.52
2022-09-13T09:48:49.865Z,10.48
2022-09-13T09:51:20.310Z,10.80
2022-09-13T09:53:52.215Z,8.18
2022-09-13T09:56:24.106Z,11.63
2022-09-13T09:58:54.339Z,8.27
2022-09-13T10:01:38.767Z,7.30
2022-09-13T10:04:12.527Z,6.53
2022-09-13T10:06:42.142Z,9.57
2022-09-13T10:09:17.447Z,8.18
2022-09-13T10:11:56.512Z,8.05
2022-09-13T10:14:36.251Z,8.63
2022-09-13T10:17:05.932Z,6.50
2022-09-13T10:19:33.310Z,8.98
2022-09-13T10:22:03.122Z,6.50
2022-09-13T10:24:30.860Z,9.20
2022-09-13T10:26:59.735Z,9.15
2022-09-13T10:29:28.953Z,6.18
2022-09-13T10:31:58.624Z,7.18
2022-09-13T10:34:35.435Z,8.85
2022-09-13T10:37:21.669Z,6.40
2022-09-13T10:39:57.695Z,6.07
2022-09-13T10:42:26.827Z,6.55
2022-09-13T10:44:59.346Z,8.23
2022-09-13T11:00:34.023Z,7.75
2022-09-13T11:03:19.726Z,7.53
2022-09-13T11:06:05.724Z,6.95
2022-09-13T11:08:33.288Z,7.47
2022-09-13T11:11:03.954Z,8.38
2022-09-13T11:13:36.387Z,9.52
2022-09-13T11:16:06.235Z,9.73
2022-09-13T11:18:50.083Z,10.25
2022-09-13T11:21:29.116Z,6.38
2022-09-13T11:23:56.213Z,7.65
2022-09-13T11:26:29.340Z,10.27
2022-09-13T12:33:54.128Z,9.90
2022-09-13T12:36:36.963Z,9.52
2022-09-13T12:39:06.960Z,8.10
2022-09-13T13:29:24.217Z,6.88
2022-09-13T13:32:04.511Z,6.18
2022-09-13T13:34:39.008Z,8.10
2022-09-13T13:37:08.961Z,6.45
2022-09-13T13:39:36.252Z,5.50
2022-09-13T13:42:22.712Z,4.75
2022-09-13T13:45:09.856Z,5.97
2022-09-13T13:47:39.415Z,7.10
2022-09-13T13:50:19.773Z,11.07
2022-09-13T13:52:50.674Z,4.22
2022-09-13T13:55:36.267Z,8.17
2022-09-13T13:58:21.506Z,9.82
2022-09-13T14:00:50.446Z,7.53
2022-09-13T14:06:11.302Z,6.95
2022-09-13T14:08:50.883Z,3.80
2022-09-13T14:11:26.340Z,4.88
2022-09-13T14:14:13.713Z,7.47
2022-09-13T14:16:46.637Z,4.97
2022-09-13T14:19:17.124Z,7.15
2022-09-13T14:21:45.160Z,6.43
2022-09-13T15:18:09.214Z,2.25
2022-09-13T21:54:05.939Z,5.13
